createdAt,value
2023-03-27T00:00:08.766Z,55.13
2023-03-27T00:01:13.394Z,54.95
2023-03-27T00:02:18.997Z,54.78
2023-03-27T00:03:21.023Z,55.25
2023-03-27T00:04:23.103Z,54.97
2023-03-27T00:05:25.368Z,55.15
2023-03-27T00:06:27.271Z,55.28
2023-03-27T00:07:29.091Z,54.96
2023-03-27T00:08:31.553Z,55.61
2023-03-27T00:09:37.209Z,55.08
2023-03-27T00:10:39.524Z,55.33
2023-03-27T00:11:41.236Z,55.10
2023-03-27T00:12:44.291Z,55.77
2023-03-27T00:13:49.767Z,55.30
2023-03-27T00:14:52.780Z,55.03
2023-03-27T00:15:57.017Z,54.92
2023-03-27T00:17:00.271Z,55.14
2023-03-27T00:18:04.198Z,55.16
2023-03-27T00:19:06.040Z,55.15
2023-03-27T00:20:07.945Z,55.93
2023-03-27T00:21:09.663Z,55.37
2023-03-27T00:22:11.259Z,55.45
2023-03-27T00:23:13.146Z,55.53
2023-03-27T00:24:17.294Z,55.10
2023-03-27T00:25:19.760Z,55.60
2023-03-27T00:26:24.345Z,55.45
2023-03-27T00:27:28.165Z,55.20
2023-03-27T00:28:32.386Z,55.57
2023-03-27T00:29:36.339Z,55.64
2023-03-27T00:30:38.025Z,55.42
2023-03-27T00:31:42.007Z,55.70
2023-03-27T00:32:46.867Z,55.56
2023-03-27T00:33:48.532Z,55.24
2023-03-27T00:34:50.213Z,55.62
2023-03-27T00:35:52.821Z,55.26
2023-03-27T00:36:54.550Z,55.04
2023-03-27T00:37:57.235Z,55.24
2023-03-27T00:38:58.831Z,55.43
2023-03-27T00:40:08.011Z,55.13
2023-03-27T00:41:10.237Z,55.17
2023-03-27T00:42:14.288Z,55.02
2023-03-27T00:43:20.848Z,55.31
2023-03-27T00:44:24.036Z,55.04
2023-03-27T00:45:32.336Z,55.25
2023-03-27T00:46:40.022Z,55.32
2023-03-27T00:47:41.893Z,54.88
2023-03-27T00:48:47.898Z,54.82
2023-03-27T00:49:51.316Z,54.94
2023-03-27T00:50:53.926Z,55.36
2023-03-27T00:51:58.193Z,55.28
2023-03-27T00:53:10.460Z,55.14
2023-03-27T00:54:17.633Z,54.98
2023-03-27T00:55:22.446Z,54.90
2023-03-27T00:56:24.786Z,55.01
2023-03-27T00:57:27.560Z,55.14
2023-03-27T00:58:31.527Z,55.48
2023-03-27T00:59:37.480Z,55.39
2023-03-27T01:00:39.392Z,55.50
2023-03-27T01:01:44.300Z,55.31
2023-03-27T01:02:49.410Z,55.67
2023-03-27T01:03:53.893Z,55.80
2023-03-27T01:04:56.783Z,55.38
2023-03-27T01:06:03.769Z,55.71
2023-03-27T01:07:07.465Z,55.84
2023-03-27T01:08:11.713Z,55.60
2023-03-27T01:09:20.367Z,55.53
2023-03-27T01:10:54.001Z,55.25
2023-03-27T01:12:11.052Z,55.57
2023-03-27T01:13:27.263Z,55.08
2023-03-27T01:14:43.006Z,55.29
2023-03-27T01:15:54.210Z,55.54
2023-03-27T01:17:06.949Z,55.71
2023-03-27T01:18:42.633Z,55.46
2023-03-27T01:20:04.316Z,55.42
2023-03-27T01:21:22.470Z,55.59
2023-03-27T01:22:53.656Z,55.80
2023-03-27T01:24:14.477Z,56.65
2023-03-27T01:25:46.270Z,56.74
2023-03-27T01:27:12.043Z,56.31
2023-03-27T01:28:38.282Z,56.21
2023-03-27T01:30:13.482Z,56.08
2023-03-27T01:32:01.334Z,56.33
2023-03-27T01:33:09.159Z,56.07
2023-03-27T01:34:48.023Z,56.27
2023-03-27T01:36:28.070Z,56.53
2023-03-27T01:37:47.804Z,56.62
2023-03-27T01:38:58.545Z,56.37
2023-03-27T01:40:12.851Z,56.35
2023-03-27T01:41:30.655Z,56.29
2023-03-27T01:42:53.153Z,56.19
2023-03-27T01:44:04.694Z,56.14
2023-03-27T01:45:15.333Z,56.20
2023-03-27T01:46:48.920Z,56.14
2023-03-27T01:48:11.237Z,56.53
2023-03-27T01:49:31.145Z,56.40
2023-03-27T01:50:41.988Z,56.53
2023-03-27T01:51:54.395Z,56.57
2023-03-27T01:53:20.641Z,56.53
2023-03-27T01:54:34.526Z,56.19
2023-03-27T01:55:41.288Z,56.35
2023-03-27T01:57:02.423Z,56.49
2023-03-27T01:58:10.266Z,56.59
2023-03-27T01:59:17.191Z,56.58
2023-03-27T02:00:24.229Z,56.41
2023-03-27T02:01:42.975Z,56.38
2023-03-27T02:02:59.715Z,56.42
2023-03-27T02:04:02.915Z,56.18
2023-03-27T02:05:19.189Z,56.21
2023-03-27T02:06:28.291Z,56.30
2023-03-27T02:07:39.241Z,56.20
2023-03-27T02:08:47.021Z,56.08
2023-03-27T02:09:57.647Z,56.07
2023-03-27T02:11:00.443Z,56.05
2023-03-27T02:12:09.675Z,55.92
2023-03-27T02:13:21.443Z,56.10
2023-03-27T02:14:29.050Z,56.13
2023-03-27T02:15:34.797Z,55.83
2023-03-27T02:16:46.299Z,55.26
2023-03-27T02:17:53.086Z,55.07
2023-03-27T02:19:01.479Z,54.82
2023-03-27T02:20:16.422Z,55.13
2023-03-27T02:21:18.336Z,55.30
2023-03-27T02:22:37.494Z,54.98
2023-03-27T02:23:43.514Z,55.19
2023-03-27T02:24:49.078Z,54.81
2023-03-27T02:25:51.936Z,54.71
2023-03-27T02:27:05.431Z,55.10
2023-03-27T02:28:34.804Z,54.84
2023-03-27T02:29:56.198Z,54.81
2023-03-27T02:31:32.915Z,54.55
2023-03-27T02:32:38.204Z,54.40
2023-03-27T02:34:04.154Z,54.26
2023-03-27T02:35:51.893Z,53.97
2023-03-27T02:37:02.301Z,54.09
2023-03-27T02:39:21.064Z,54.18
2023-03-27T02:40:45.612Z,53.36
2023-03-27T02:42:57.866Z,53.39
2023-03-27T02:44:13.647Z,53.41
2023-03-27T02:46:05.601Z,53.29
2023-03-27T02:47:16.515Z,53.46
2023-03-27T02:48:29.711Z,53.64
2023-03-27T02:49:53.137Z,53.41
2023-03-27T02:51:03.932Z,53.17
2023-03-27T02:52:51.186Z,53.03
2023-03-27T02:54:06.652Z,53.34
2023-03-27T02:55:16.495Z,53.15
2023-03-27T02:56:22.368Z,53.29
2023-03-27T02:57:30.053Z,53.02
2023-03-27T02:59:03.857Z,53.09
2023-03-27T03:00:20.530Z,53.08
2023-03-27T03:01:30.680Z,53.37
2023-03-27T03:03:08.814Z,53.00
2023-03-27T03:04:25.288Z,53.05
2023-03-27T03:05:50.840Z,53.21
2023-03-27T03:06:54.223Z,53.00
2023-03-27T03:07:58.093Z,52.98
2023-03-27T03:09:05.197Z,52.91
2023-03-27T03:10:11.432Z,53.26
2023-03-27T03:11:14.538Z,52.90
2023-03-27T03:12:16.213Z,52.78
2023-03-27T03:13:20.188Z,52.54
2023-03-27T03:14:25.976Z,53.00
2023-03-27T03:15:28.006Z,52.89
2023-03-27T03:16:30.276Z,52.77
2023-03-27T03:17:32.064Z,52.48
2023-03-27T03:18:34.082Z,52.51
2023-03-27T03:19:37.121Z,52.65
2023-03-27T03:20:41.327Z,52.89
2023-03-27T03:21:43.266Z,52.68
2023-03-27T03:22:46.560Z,52.90
2023-03-27T03:23:57.928Z,52.84
2023-03-27T03:25:01.752Z,52.62
2023-03-27T03:26:06.843Z,52.71
2023-03-27T03:27:21.079Z,52.77
2023-03-27T03:28:35.225Z,52.47
2023-03-27T03:29:37.548Z,52.35
2023-03-27T03:30:50.819Z,52.65
2023-03-27T03:31:53.976Z,52.65
2023-03-27T03:32:57.051Z,52.87
2023-03-27T03:34:02.388Z,52.69
2023-03-27T03:35:08.453Z,52.01
2023-03-27T03:36:14.833Z,52.28
2023-03-27T03:37:17.176Z,52.24
2023-03-27T03:38:24.976Z,51.92
2023-03-27T03:39:26.931Z,52.16
2023-03-27T03:40:29.024Z,52.11
2023-03-27T03:41:34.958Z,52.29
2023-03-27T03:42:37.278Z,52.32
2023-03-27T03:43:38.932Z,52.06
2023-03-27T03:44:42.541Z,52.12
2023-03-27T03:45:54.265Z,51.69
2023-03-27T03:46:56.169Z,51.56
2023-03-27T03:47:57.822Z,52.08
2023-03-27T03:49:00.473Z,52.25
2023-03-27T03:50:02.407Z,51.90
2023-03-27T03:51:06.692Z,51.88
2023-03-27T03:52:08.407Z,51.64
2023-03-27T03:53:10.088Z,51.74
2023-03-27T03:54:11.944Z,51.61
2023-03-27T03:55:16.962Z,51.67
2023-03-27T03:56:18.873Z,51.36
2023-03-27T03:57:24.778Z,51.76
2023-03-27T03:58:40.595Z,51.82
2023-03-27T03:59:44.539Z,51.68
2023-03-27T04:01:20.558Z,51.61
2023-03-27T04:02:29.017Z,51.86
2023-03-27T04:03:51.155Z,51.65
2023-03-27T04:04:57.317Z,51.58
2023-03-27T04:06:01.006Z,51.58
2023-03-27T04:07:05.517Z,51.51
2023-03-27T04:08:10.026Z,50.83
2023-03-27T04:09:41.020Z,51.32
2023-03-27T04:10:48.250Z,51.20
2023-03-27T04:12:17.819Z,51.24
2023-03-27T04:13:26.584Z,51.71
2023-03-27T04:14:33.945Z,51.49
2023-03-27T04:15:40.269Z,51.47
2023-03-27T04:16:49.627Z,51.61
2023-03-27T04:17:57.700Z,51.32
2023-03-27T04:19:01.115Z,51.54
2023-03-27T04:20:10.344Z,51.35
2023-03-27T04:21:15.221Z,51.17
2023-03-27T04:22:17.311Z,51.06
2023-03-27T04:23:19.763Z,51.45
2023-03-27T04:24:24.165Z,51.20
2023-03-27T04:25:26.389Z,51.33
2023-03-27T04:26:29.716Z,51.31
2023-03-27T04:27:53.839Z,51.45
2023-03-27T04:29:02.456Z,51.52
2023-03-27T04:42:45.090Z,51.60
2023-03-27T04:43:47.373Z,51.61
2023-03-27T04:44:50.325Z,52.00
2023-03-27T04:45:53.413Z,51.65
2023-03-27T04:46:55.246Z,51.65
2023-03-27T04:47:59.372Z,51.74
2023-03-27T04:49:01.021Z,51.44
2023-03-27T04:50:19.612Z,51.30
2023-03-27T04:51:22.066Z,51.15
2023-03-27T04:52:25.569Z,51.31
2023-03-27T04:53:30.267Z,51.71
2023-03-27T04:54:33.396Z,51.95
2023-03-27T04:55:38.708Z,51.85
2023-03-27T04:56:41.794Z,51.93
2023-03-27T04:57:47.498Z,51.87
2023-03-27T04:58:49.342Z,51.43
2023-03-27T04:59:53.671Z,51.45
2023-03-27T05:01:30.502Z,52.34
2023-03-27T05:02:56.203Z,52.15
2023-03-27T05:04:21.138Z,52.50
2023-03-27T05:05:50.055Z,52.47
2023-03-27T05:06:51.950Z,52.41
2023-03-27T05:07:54.118Z,52.35
2023-03-27T05:08:59.328Z,51.70
2023-03-27T05:10:06.577Z,51.92
2023-03-27T05:11:08.948Z,51.98
2023-03-27T05:12:16.458Z,51.88
2023-03-27T05:13:28.802Z,51.80
2023-03-27T05:14:33.148Z,51.56
2023-03-27T05:15:40.430Z,51.60
2023-03-27T05:16:44.578Z,51.87
2023-03-27T05:17:53.313Z,52.51
2023-03-27T05:18:57.087Z,52.28
2023-03-27T05:19:58.747Z,52.71
2023-03-27T05:21:00.555Z,52.34
2023-03-27T05:22:02.241Z,52.44
2023-03-27T05:23:07.439Z,51.91
2023-03-27T05:24:12.884Z,51.99
2023-03-27T05:25:14.596Z,52.21
2023-03-27T05:26:17.371Z,51.97
2023-03-27T05:27:24.072Z,52.15
2023-03-27T05:28:29.701Z,52.20
2023-03-27T05:29:31.335Z,52.25
2023-03-27T05:30:52.041Z,52.38
2023-03-27T05:31:56.296Z,52.00
2023-03-27T05:33:21.450Z,52.32
2023-03-27T05:34:23.190Z,52.50
2023-03-27T05:35:28.767Z,51.96
2023-03-27T05:36:32.943Z,52.28
2023-03-27T05:37:36.406Z,52.03
2023-03-27T05:39:01.979Z,52.08
2023-03-27T05:40:15.171Z,51.90
2023-03-27T05:41:20.092Z,51.92
2023-03-27T05:42:23.379Z,51.78
2023-03-27T05:43:25.055Z,51.99
2023-03-27T05:44:27.459Z,51.68
2023-03-27T05:45:29.556Z,51.60
2023-03-27T05:46:31.495Z,51.33
2023-03-27T05:47:45.366Z,51.35
2023-03-27T05:48:48.166Z,51.49
2023-03-27T05:49:49.962Z,51.58
2023-03-27T05:50:52.034Z,51.56
2023-03-27T05:51:58.361Z,51.25
2023-03-27T05:53:01.247Z,51.67
2023-03-27T05:54:09.779Z,51.26
2023-03-27T05:55:32.350Z,51.54
2023-03-27T05:56:34.081Z,51.42
2023-03-27T05:57:39.618Z,51.47
2023-03-27T05:58:41.571Z,51.76
2023-03-27T05:59:44.890Z,51.83
2023-03-27T06:00:52.507Z,51.73
2023-03-27T06:01:58.460Z,51.84
2023-03-27T06:03:09.844Z,52.06
2023-03-27T06:04:45.049Z,52.01
2023-03-27T06:05:53.999Z,51.87
2023-03-27T06:06:56.156Z,52.03
2023-03-27T06:07:59.036Z,51.90
2023-03-27T06:09:01.656Z,51.99
2023-03-27T06:10:07.549Z,52.17
2023-03-27T06:11:18.290Z,52.14
2023-03-27T06:12:21.233Z,51.80
2023-03-27T06:13:25.873Z,52.19
2023-03-27T06:14:31.796Z,52.20
2023-03-27T06:15:58.209Z,52.20
2023-03-27T06:17:18.289Z,52.21
2023-03-27T06:18:29.986Z,52.26
2023-03-27T06:19:31.684Z,52.23
2023-03-27T06:20:35.336Z,52.25
2023-03-27T06:21:37.396Z,51.91
2023-03-27T06:22:47.992Z,51.85
2023-03-27T06:23:53.647Z,51.84
2023-03-27T06:24:55.331Z,52.12
2023-03-27T06:25:58.604Z,51.52
2023-03-27T06:27:01.422Z,51.44
2023-03-27T06:28:09.614Z,51.19
2023-03-27T06:29:22.296Z,51.26
2023-03-27T06:30:27.461Z,51.75
2023-03-27T06:31:52.853Z,51.59
2023-03-27T06:33:01.160Z,51.27
2023-03-27T06:34:03.284Z,51.19
2023-03-27T06:35:18.941Z,51.29
2023-03-27T06:36:34.441Z,51.25
2023-03-27T06:37:36.933Z,51.17
2023-03-27T06:38:39.429Z,50.75
2023-03-27T06:39:44.989Z,50.82
2023-03-27T06:40:49.617Z,50.47
2023-03-27T06:41:51.686Z,50.23
2023-03-27T06:42:57.560Z,51.14
2023-03-27T06:44:10.567Z,51.04
2023-03-27T06:45:34.338Z,51.08
2023-03-27T06:47:08.307Z,50.95
2023-03-27T06:48:22.376Z,51.04
2023-03-27T06:49:29.355Z,50.71
2023-03-27T06:50:33.192Z,50.55
2023-03-27T06:51:35.193Z,50.29
2023-03-27T06:52:37.753Z,50.54
2023-03-27T06:54:03.264Z,50.51
2023-03-27T06:55:07.482Z,50.76
2023-03-27T06:56:24.296Z,50.76
2023-03-27T06:57:53.758Z,50.12
2023-03-27T06:58:58.648Z,49.92
2023-03-27T07:00:31.428Z,50.20
2023-03-27T07:01:59.009Z,50.20
2023-03-27T07:03:19.001Z,50.01
2023-03-27T07:04:33.471Z,49.73
2023-03-27T07:05:44.855Z,49.77
2023-03-27T07:06:50.494Z,50.16
2023-03-27T07:07:58.297Z,49.72
2023-03-27T07:09:04.377Z,49.65
2023-03-27T07:10:07.852Z,49.39
2023-03-27T07:11:11.990Z,49.00
2023-03-27T07:12:19.447Z,49.04
2023-03-27T07:13:22.645Z,49.23
2023-03-27T07:14:24.326Z,48.88
2023-03-27T07:15:28.809Z,49.09
2023-03-27T07:16:31.280Z,48.99
2023-03-27T07:17:48.152Z,49.01
2023-03-27T07:18:52.442Z,49.21
2023-03-27T07:19:57.764Z,48.65
2023-03-27T07:21:04.149Z,48.76
2023-03-27T07:22:06.161Z,49.09
2023-03-27T07:23:11.667Z,48.97
2023-03-27T07:24:25.957Z,49.10
2023-03-27T07:25:37.106Z,48.87
2023-03-27T07:26:43.676Z,48.70
2023-03-27T07:27:50.319Z,48.50
2023-03-27T07:28:52.825Z,48.64
2023-03-27T07:30:00.301Z,48.49
2023-03-27T07:31:20.132Z,48.63
2023-03-27T07:32:37.115Z,48.59
2023-03-27T07:33:40.879Z,48.59
2023-03-27T07:34:42.680Z,48.24
2023-03-27T07:35:59.596Z,48.80
2023-03-27T07:37:14.596Z,48.43
2023-03-27T07:38:36.203Z,48.73
2023-03-27T07:39:59.153Z,48.50
2023-03-27T07:41:06.814Z,48.12
2023-03-27T07:42:31.505Z,47.89
2023-03-27T07:43:36.288Z,48.37
2023-03-27T07:44:38.328Z,48.29
2023-03-27T07:45:42.777Z,48.28
2023-03-27T07:46:45.971Z,48.19
2023-03-27T07:47:50.267Z,47.91
2023-03-27T07:48:52.070Z,48.10
2023-03-27T07:49:57.050Z,48.37
2023-03-27T07:51:10.873Z,48.30
2023-03-27T07:52:19.502Z,47.79
2023-03-27T07:53:32.916Z,47.10
2023-03-27T07:54:44.196Z,46.95
2023-03-27T07:55:48.277Z,47.12
2023-03-27T07:56:50.499Z,47.23
2023-03-27T07:58:08.276Z,46.75
2023-03-27T07:59:13.720Z,47.51
2023-03-27T08:00:16.949Z,47.18
2023-03-27T08:01:18.840Z,47.33
2023-03-27T08:02:25.102Z,47.73
2023-03-27T08:03:28.200Z,47.62
2023-03-27T08:04:30.603Z,47.45
2023-03-27T08:05:52.153Z,48.03
2023-03-27T08:06:54.668Z,48.16
2023-03-27T08:07:58.406Z,48.17
2023-03-27T08:09:35.489Z,47.83
2023-03-27T08:10:40.015Z,47.82
2023-03-27T08:11:44.276Z,47.72
2023-03-27T08:12:46.230Z,47.84
2023-03-27T08:13:48.815Z,47.79
2023-03-27T08:14:50.359Z,47.81
2023-03-27T08:16:17.084Z,47.59
2023-03-27T08:17:22.135Z,47.58
2023-03-27T08:18:24.325Z,47.86
2023-03-27T08:19:26.694Z,47.69
2023-03-27T08:20:34.432Z,47.85
2023-03-27T08:21:36.333Z,47.71
2023-03-27T08:22:38.675Z,47.79
2023-03-27T08:24:04.801Z,47.66
2023-03-27T08:25:29.711Z,47.49
2023-03-27T08:26:33.296Z,47.25
2023-03-27T08:27:40.318Z,46.96
2023-03-27T08:28:42.474Z,47.27
2023-03-27T08:29:46.691Z,46.99
2023-03-27T08:30:51.036Z,47.43
2023-03-27T08:31:52.906Z,47.39
2023-03-27T08:32:54.760Z,47.60
2023-03-27T08:33:56.576Z,47.50
2023-03-27T08:35:01.727Z,47.67
2023-03-27T08:36:04.799Z,47.53
2023-03-27T08:37:08.756Z,47.45
2023-03-27T08:38:26.042Z,47.51
2023-03-27T08:39:48.037Z,46.58
2023-03-27T08:40:53.993Z,47.01
2023-03-27T08:42:04.729Z,47.02
2023-03-27T08:43:16.816Z,47.01
2023-03-27T08:44:21.466Z,46.71
2023-03-27T08:45:28.132Z,46.14
2023-03-27T08:46:38.508Z,46.97
2023-03-27T08:47:50.212Z,46.95
2023-03-27T08:49:17.317Z,46.68
2023-03-27T08:50:52.971Z,46.95
2023-03-27T08:52:16.791Z,48.28
2023-03-27T08:53:34.828Z,48.71
2023-03-27T08:54:39.744Z,49.60
2023-03-27T08:55:45.244Z,50.01
2023-03-27T08:56:54.711Z,50.53
2023-03-27T08:57:59.787Z,51.15
2023-03-27T08:59:01.962Z,51.81
2023-03-27T09:00:09.846Z,52.24
2023-03-27T09:01:45.613Z,53.34
2023-03-27T09:02:59.603Z,53.54
2023-03-27T09:04:17.829Z,53.37
2023-03-27T09:05:31.854Z,54.02
2023-03-27T09:06:50.460Z,53.77
2023-03-27T09:08:07.603Z,53.67
2023-03-27T09:09:19.508Z,53.68
2023-03-27T09:10:26.426Z,53.65
2023-03-27T09:11:47.164Z,53.89
2023-03-27T09:13:21.930Z,54.43
2023-03-27T09:15:09.649Z,54.14
2023-03-27T09:16:21.292Z,54.54
2023-03-27T09:17:35.630Z,54.51
2023-03-27T09:18:54.254Z,54.34
2023-03-27T09:20:06.393Z,54.11
2023-03-27T09:21:17.995Z,54.44
2023-03-27T09:22:27.554Z,54.56
2023-03-27T09:23:45.434Z,54.46
2023-03-27T09:25:19.045Z,54.25
2023-03-27T09:26:35.662Z,55.01
2023-03-27T09:28:00.106Z,54.48
2023-03-27T09:29:24.950Z,54.60
2023-03-27T09:30:39.228Z,55.08
2023-03-27T09:31:57.717Z,55.31
2023-03-27T09:33:05.484Z,54.91
2023-03-27T09:34:13.850Z,54.78
2023-03-27T09:35:19.055Z,54.89
2023-03-27T09:36:29.044Z,54.46
2023-03-27T09:37:37.016Z,54.71
2023-03-27T09:38:44.637Z,53.84
2023-03-27T09:39:55.114Z,53.56
2023-03-27T09:41:10.714Z,53.46
2023-03-27T09:42:20.761Z,53.40
2023-03-27T09:43:27.555Z,53.51
2023-03-27T09:44:37.688Z,53.86
2023-03-27T09:45:40.791Z,53.75
2023-03-27T09:46:50.320Z,53.41
2023-03-27T09:48:02.437Z,53.28
2023-03-27T09:49:15.924Z,53.21
2023-03-27T09:50:33.886Z,52.90
2023-03-27T09:51:48.017Z,53.24
2023-03-27T09:53:14.748Z,53.48
2023-03-27T09:54:29.003Z,53.44
2023-03-27T09:55:35.310Z,53.70
2023-03-27T09:56:53.961Z,53.88
2023-03-27T09:58:10.020Z,53.84
2023-03-27T09:59:24.266Z,53.71
2023-03-27T10:00:30.831Z,53.79
2023-03-27T10:01:38.339Z,53.70
2023-03-27T10:03:16.458Z,53.75
2023-03-27T10:04:23.490Z,54.14
2023-03-27T10:05:31.856Z,54.29
2023-03-27T10:06:44.594Z,54.55
2023-03-27T10:07:56.770Z,54.45
2023-03-27T10:09:26.561Z,53.92
2023-03-27T10:10:34.825Z,53.94
2023-03-27T10:11:40.103Z,53.53
2023-03-27T10:12:55.845Z,53.41
2023-03-27T10:14:13.729Z,53.15
2023-03-27T10:15:38.591Z,53.78
2023-03-27T10:16:42.330Z,53.50
2023-03-27T10:17:49.339Z,53.66
2023-03-27T10:18:55.621Z,54.00
2023-03-27T10:20:09.199Z,54.10
2023-03-27T10:21:19.806Z,54.40
2023-03-27T10:22:26.274Z,54.24
2023-03-27T10:23:49.806Z,53.80
2023-03-27T10:25:30.339Z,54.37
2023-03-27T10:26:41.029Z,54.92
2023-03-27T10:27:43.806Z,54.70
2023-03-27T10:29:26.840Z,54.26
2023-03-27T10:30:36.145Z,54.82
2023-03-27T10:32:04.164Z,54.87
2023-03-27T10:33:11.895Z,54.69
2023-03-27T10:34:37.506Z,54.63
2023-03-27T10:35:58.177Z,54.17
2023-03-27T10:37:26.589Z,53.56
2023-03-27T10:38:36.526Z,54.67
2023-03-27T10:40:03.539Z,54.90
2023-03-27T10:41:28.717Z,55.07
2023-03-27T10:42:36.360Z,54.61
2023-03-27T10:43:42.556Z,54.96
2023-03-27T10:44:48.042Z,55.19
2023-03-27T10:45:53.663Z,55.31
2023-03-27T10:46:56.368Z,55.39
2023-03-27T10:48:01.496Z,55.25
2023-03-27T10:49:10.739Z,55.12
2023-03-27T10:50:21.701Z,55.48
2023-03-27T10:51:43.010Z,55.69
2023-03-27T10:52:49.416Z,56.07
2023-03-27T10:54:21.513Z,55.86
2023-03-27T10:55:48.497Z,55.84
2023-03-27T10:56:59.676Z,55.95
2023-03-27T10:58:22.503Z,55.71
2023-03-27T10:59:50.792Z,54.96
2023-03-27T11:01:21.766Z,55.21
2023-03-27T11:02:37.426Z,55.49
2023-03-27T11:04:03.590Z,54.68
2023-03-27T11:05:16.854Z,55.18
2023-03-27T11:06:24.288Z,55.53
2023-03-27T11:07:33.837Z,54.84
2023-03-27T11:08:55.351Z,53.77
2023-03-27T11:10:07.920Z,52.55
2023-03-27T11:11:28.287Z,52.42
2023-03-27T11:12:37.942Z,52.32
2023-03-27T11:13:47.442Z,53.09
2023-03-27T11:15:04.487Z,52.20
2023-03-27T11:16:25.629Z,53.15
2023-03-27T11:18:18.471Z,53.88
2023-03-27T11:19:43.736Z,54.12
2023-03-27T11:21:16.014Z,53.54
2023-03-27T11:22:43.029Z,53.64
2023-03-27T11:23:54.442Z,54.17
2023-03-27T11:25:27.204Z,54.40
2023-03-27T11:26:40.600Z,54.00
2023-03-27T11:28:09.750Z,53.09
2023-03-27T11:29:23.164Z,53.77
2023-03-27T11:30:44.362Z,53.26
2023-03-27T11:31:52.307Z,53.59
2023-03-27T11:33:36.869Z,53.61
2023-03-27T11:34:57.673Z,51.81
2023-03-27T11:36:29.884Z,51.89
2023-03-27T11:38:01.431Z,50.90
2023-03-27T11:39:15.666Z,50.14
2023-03-27T11:40:43.729Z,48.37
2023-03-27T11:41:52.226Z,49.07
2023-03-27T11:42:54.584Z,48.61
2023-03-27T11:43:57.166Z,48.37
2023-03-27T11:45:23.034Z,48.92
2023-03-27T11:46:43.717Z,48.58
2023-03-27T11:48:28.230Z,48.87
2023-03-27T11:49:36.979Z,48.26
2023-03-27T11:50:58.408Z,48.17
2023-03-27T11:52:27.954Z,47.91
2023-03-27T11:54:05.621Z,47.99
2023-03-27T11:55:33.019Z,48.02
2023-03-27T11:56:55.989Z,49.66
2023-03-27T11:58:36.472Z,50.60
2023-03-27T11:59:59.394Z,50.74
2023-03-27T12:01:12.863Z,50.30
2023-03-27T12:02:29.722Z,49.97
2023-03-27T12:03:53.029Z,50.24
2023-03-27T12:05:33.950Z,50.48
2023-03-27T12:06:51.110Z,50.82
2023-03-27T12:08:21.746Z,50.24
2023-03-27T12:09:43.635Z,51.01
2023-03-27T12:11:14.026Z,50.18
2023-03-27T12:13:02.875Z,50.12
2023-03-27T12:14:40.782Z,49.69
2023-03-27T12:15:58.274Z,50.23
2023-03-27T12:17:33.092Z,50.57
2023-03-27T12:19:03.859Z,50.72
2023-03-27T12:20:32.629Z,50.16
2023-03-27T12:22:20.792Z,50.92
2023-03-27T12:23:41.855Z,50.69
2023-03-27T12:25:36.031Z,50.55
2023-03-27T12:27:16.204Z,50.61
2023-03-27T12:28:49.748Z,50.84
2023-03-27T12:31:07.425Z,50.74
2023-03-27T12:32:28.210Z,50.56
2023-03-27T12:33:45.310Z,49.59
2023-03-27T12:34:54.485Z,49.30
2023-03-27T12:36:07.843Z,50.09
2023-03-27T12:37:13.338Z,50.12
2023-03-27T12:38:36.486Z,50.14
2023-03-27T12:39:48.621Z,50.04
2023-03-27T12:40:52.955Z,50.26
2023-03-27T12:41:54.703Z,50.55
2023-03-27T12:43:19.823Z,49.70
2023-03-27T12:44:31.557Z,49.88
2023-03-27T12:45:44.150Z,50.08
2023-03-27T12:47:24.530Z,49.83
2023-03-27T12:48:58.188Z,50.33
2023-03-27T12:50:01.286Z,50.18
2023-03-27T12:51:15.334Z,50.17
2023-03-27T12:52:19.295Z,50.13
2023-03-27T12:53:38.619Z,50.32
2023-03-27T12:55:05.769Z,49.97
2023-03-27T12:56:38.377Z,50.08
2023-03-27T12:57:47.049Z,50.05
2023-03-27T12:58:55.689Z,49.78
2023-03-27T13:00:22.052Z,49.47
2023-03-27T13:01:49.148Z,49.46
2023-03-27T13:03:19.366Z,49.36
2023-03-27T13:04:47.755Z,48.92
2023-03-27T13:06:12.784Z,49.41
2023-03-27T13:07:54.663Z,49.93
2023-03-27T13:09:31.265Z,49.36
2023-03-27T13:11:18.274Z,49.35
2023-03-27T13:12:34.517Z,49.34
2023-03-27T13:14:46.583Z,49.78
2023-03-27T13:16:11.960Z,49.77
2023-03-27T13:17:27.451Z,49.40
2023-03-27T13:18:44.599Z,49.64
2023-03-27T13:20:02.007Z,49.30
2023-03-27T13:21:36.519Z,49.84
2023-03-27T13:23:23.333Z,49.47
2023-03-27T13:24:36.623Z,49.26
2023-03-27T13:25:53.621Z,48.79
2023-03-27T13:27:00.937Z,48.47
2023-03-27T13:28:37.099Z,48.51
2023-03-27T13:29:53.940Z,48.65
2023-03-27T13:31:11.287Z,48.70
2023-03-27T13:32:40.015Z,49.04
2023-03-27T13:34:27.921Z,49.13
2023-03-27T13:35:41.460Z,48.94
2023-03-27T13:37:06.459Z,49.30
2023-03-27T13:38:12.097Z,49.45
2023-03-27T13:39:59.244Z,49.88
2023-03-27T13:41:38.447Z,50.67
2023-03-27T13:42:52.578Z,50.30
2023-03-27T13:43:58.162Z,50.56
2023-03-27T13:45:22.053Z,50.55
2023-03-27T13:47:09.107Z,50.30
2023-03-27T13:48:25.079Z,50.33
2023-03-27T13:49:35.507Z,50.13
2023-03-27T13:51:08.054Z,50.06
2023-03-27T13:52:32.624Z,49.98
2023-03-27T13:54:02.530Z,50.47
2023-03-27T13:55:36.781Z,49.86
2023-03-27T13:57:38.208Z,49.66
2023-03-27T13:59:13.039Z,49.84
2023-03-27T14:00:30.937Z,49.76
2023-03-27T14:02:03.777Z,49.95
2023-03-27T14:03:17.976Z,49.86
2023-03-27T14:04:59.225Z,49.48
2023-03-27T14:06:38.462Z,49.62
2023-03-27T14:07:43.555Z,49.63
2023-03-27T14:09:02.014Z,49.61
2023-03-27T14:10:46.674Z,49.45
2023-03-27T14:12:07.620Z,49.45
2023-03-27T14:13:58.173Z,49.58
2023-03-27T14:15:25.269Z,49.66
2023-03-27T14:17:05.802Z,49.53
2023-03-27T14:18:44.913Z,49.36
2023-03-27T14:20:08.454Z,49.40
2023-03-27T14:21:24.726Z,49.67
2023-03-27T14:22:39.995Z,49.74
2023-03-27T14:23:58.817Z,49.79
2023-03-27T14:25:22.436Z,49.34
2023-03-27T14:26:31.605Z,49.00
2023-03-27T14:27:34.788Z,49.13
2023-03-27T14:28:49.507Z,48.87
2023-03-27T14:30:26.307Z,49.32
2023-03-27T14:31:47.678Z,49.35
2023-03-27T14:33:10.782Z,49.42
2023-03-27T14:34:22.477Z,49.17
2023-03-27T14:35:39.951Z,49.53
2023-03-27T14:36:47.503Z,49.76
2023-03-27T14:38:28.359Z,49.86
2023-03-27T14:39:37.694Z,49.92
2023-03-27T14:40:47.656Z,49.65
2023-03-27T14:41:57.838Z,49.52
2023-03-27T14:43:02.044Z,49.61
2023-03-27T14:44:05.019Z,49.67
2023-03-27T14:45:24.152Z,49.01
2023-03-27T14:46:28.152Z,49.40
2023-03-27T14:47:37.081Z,49.16
2023-03-27T14:48:46.093Z,49.12
2023-03-27T14:49:50.753Z,49.34
2023-03-27T14:51:19.473Z,48.87
2023-03-27T14:52:34.968Z,48.69
2023-03-27T14:54:02.474Z,48.74
2023-03-27T14:55:20.501Z,48.97
2023-03-27T14:56:37.913Z,48.98
2023-03-27T14:57:59.052Z,48.66
2023-03-27T14:59:14.672Z,48.13
2023-03-27T15:00:36.092Z,48.38
2023-03-27T15:01:38.577Z,48.72
2023-03-27T15:02:42.127Z,48.44
2023-03-27T15:03:45.963Z,48.49
2023-03-27T15:04:48.426Z,48.51
2023-03-27T15:05:58.167Z,48.50
2023-03-27T15:07:18.721Z,48.87
2023-03-27T15:08:37.075Z,48.56
2023-03-27T15:10:10.123Z,48.10
2023-03-27T15:11:39.038Z,47.68
2023-03-27T15:12:59.083Z,48.21
2023-03-27T15:14:03.081Z,47.89
2023-03-27T15:15:25.764Z,48.08
2023-03-27T15:16:30.776Z,47.61
2023-03-27T15:17:34.881Z,47.08
2023-03-27T15:18:49.258Z,46.93
2023-03-27T15:19:55.130Z,46.76
2023-03-27T15:21:04.160Z,46.68
2023-03-27T15:22:11.373Z,46.52
2023-03-27T15:23:21.816Z,46.60
2023-03-27T15:24:43.446Z,47.12
2023-03-27T15:26:21.636Z,46.52
2023-03-27T15:27:41.044Z,46.43
2023-03-27T15:28:53.335Z,45.93
2023-03-27T15:30:01.015Z,45.51
2023-03-27T15:31:04.347Z,46.04
2023-03-27T15:32:11.291Z,45.99
2023-03-27T15:33:20.314Z,45.61
2023-03-27T15:34:21.971Z,45.91
2023-03-27T15:35:35.317Z,45.78
2023-03-27T15:36:38.392Z,45.87
2023-03-27T15:37:42.843Z,46.01
2023-03-27T15:38:45.131Z,46.45
2023-03-27T15:40:38.542Z,46.74
2023-03-27T15:41:42.678Z,47.49
2023-03-27T15:42:47.382Z,47.18
2023-03-27T15:43:52.130Z,46.93
2023-03-27T15:44:53.903Z,47.59
2023-03-27T15:46:03.303Z,48.05
2023-03-27T15:47:24.801Z,48.08
2023-03-27T15:48:29.897Z,48.60
2023-03-27T15:49:37.183Z,48.31
2023-03-27T15:50:38.973Z,48.86
2023-03-27T15:51:41.965Z,49.33
2023-03-27T15:52:51.607Z,49.13
2023-03-27T15:53:55.836Z,49.01
2023-03-27T15:54:59.664Z,49.06
2023-03-27T15:56:24.756Z,48.73
2023-03-27T15:57:30.755Z,49.17
2023-03-27T15:58:46.029Z,48.69
2023-03-27T15:59:51.865Z,49.24